createdAt,value
2019-05-05T00:00:01.860Z,36.85
2019-05-05T00:01:15.036Z,33.78
2019-05-05T00:02:34.305Z,36.90
2019-05-05T00:03:47.924Z,36.35
2019-05-05T00:05:04.842Z,37.03
2019-05-05T00:06:08.545Z,38.45
2019-05-05T00:07:14.877Z,38.23
2019-05-05T00:08:17.992Z,36.73
2019-05-05T00:09:20.985Z,37.75
2019-05-05T00:10:49.785Z,36.33
2019-05-05T00:13:41.653Z,36.58
2019-05-05T00:15:02.513Z,37.48
2019-05-05T00:16:18.917Z,37.63
2019-05-05T00:17:24.832Z,37.58
2019-05-05T00:18:28.056Z,36.38
2019-05-05T00:19:33.478Z,36.88
2019-05-05T00:20:35.757Z,37.23
2019-05-05T00:21:39.147Z,39.05
2019-05-05T00:22:42.048Z,36.70
2019-05-05T00:23:45.224Z,36.80
2019-05-05T00:24:48.142Z,36.68
2019-05-05T00:25:51.960Z,36.10
2019-05-05T00:26:55.480Z,38.30
2019-05-05T00:27:58.409Z,37.33
2019-05-05T00:29:01.472Z,38.63
2019-05-05T00:30:05.473Z,38.13
2019-05-05T00:31:09.373Z,37.13
2019-05-05T00:32:12.409Z,39.08
2019-05-05T00:33:15.406Z,37.50
2019-05-05T00:34:18.648Z,37.93
2019-05-05T00:35:21.951Z,39.18
2019-05-05T00:36:25.899Z,37.90
2019-05-05T00:37:28.891Z,37.88
2019-05-05T00:38:32.205Z,39.08
2019-05-05T00:39:35.132Z,38.25
2019-05-05T00:40:38.081Z,39.45
2019-05-05T00:41:41.069Z,37.93
2019-05-05T00:42:45.599Z,39.48
2019-05-05T00:43:49.333Z,38.88
2019-05-05T00:44:52.325Z,38.42
2019-05-05T00:46:00.330Z,39.27
2019-05-05T00:47:29.028Z,36.70
2019-05-05T00:48:56.981Z,38.55
2019-05-05T00:50:00.383Z,38.50
2019-05-05T00:51:04.663Z,39.15
2019-05-05T00:52:07.893Z,38.33
2019-05-05T00:53:10.812Z,39.65
2019-05-05T00:54:14.883Z,37.25
2019-05-05T00:55:17.930Z,38.58
2019-05-05T00:56:21.177Z,40.23
2019-05-05T00:57:24.342Z,37.33
2019-05-05T00:58:28.535Z,38.70
2019-05-05T00:59:31.561Z,39.03
2019-05-05T01:00:45.712Z,38.28
2019-05-05T01:02:01.509Z,38.02
2019-05-05T01:03:04.820Z,37.58
2019-05-05T01:04:08.023Z,40.25
2019-05-05T01:05:29.617Z,38.78
2019-05-05T01:06:34.481Z,39.65
2019-05-05T01:07:37.303Z,37.95
2019-05-05T01:08:40.473Z,36.10
2019-05-05T01:09:45.074Z,37.83
2019-05-05T01:10:48.816Z,35.63
2019-05-05T01:11:52.324Z,36.83
2019-05-05T01:12:55.333Z,36.90
2019-05-05T01:13:58.741Z,38.13
2019-05-05T01:15:01.701Z,39.48
2019-05-05T01:16:04.927Z,37.60
2019-05-05T01:17:07.834Z,36.08
2019-05-05T01:18:11.185Z,35.15
2019-05-05T01:19:14.987Z,35.73
2019-05-05T01:20:18.041Z,34.30
2019-05-05T01:21:20.965Z,35.63
2019-05-05T01:22:25.010Z,34.75
2019-05-05T01:23:28.125Z,34.98
2019-05-05T01:24:31.061Z,35.40
2019-05-05T01:25:34.720Z,36.75
2019-05-05T01:26:37.833Z,36.05
2019-05-05T01:27:41.117Z,33.85
2019-05-05T01:28:44.727Z,34.20
2019-05-05T01:29:47.708Z,34.45
2019-05-05T01:31:00.847Z,33.33
2019-05-05T01:32:06.533Z,34.60
2019-05-05T01:33:15.977Z,35.17
2019-05-05T01:34:26.585Z,35.15
2019-05-05T01:35:30.224Z,36.75
2019-05-05T01:36:34.522Z,34.70
2019-05-05T01:37:44.295Z,33.75
2019-05-05T01:38:56.007Z,33.67
2019-05-05T01:40:05.767Z,34.65
2019-05-05T01:41:17.388Z,35.13
2019-05-05T01:42:20.326Z,33.63
2019-05-05T01:43:25.334Z,33.15
2019-05-05T01:44:28.381Z,34.60
2019-05-05T01:45:31.380Z,35.95
2019-05-05T01:46:35.283Z,33.30
2019-05-05T01:47:38.576Z,32.95
2019-05-05T01:48:42.096Z,34.05
2019-05-05T01:49:45.460Z,33.70
2019-05-05T01:50:49.474Z,33.58
2019-05-05T01:51:52.409Z,33.73
2019-05-05T01:52:55.697Z,32.70
2019-05-05T01:53:58.501Z,33.42
2019-05-05T01:55:01.409Z,32.33
2019-05-05T01:56:04.942Z,32.20
2019-05-05T01:57:08.455Z,32.85
2019-05-05T01:58:11.577Z,30.55
2019-05-05T01:59:14.606Z,30.88
2019-05-05T02:00:17.765Z,31.65
2019-05-05T02:01:20.969Z,32.78
2019-05-05T02:02:25.108Z,32.05
2019-05-05T02:03:29.369Z,32.23
2019-05-05T02:04:34.138Z,30.70
2019-05-05T02:05:37.484Z,31.40
2019-05-05T02:06:40.442Z,30.43
2019-05-05T02:07:44.866Z,30.77
2019-05-05T02:08:48.047Z,31.45
2019-05-05T02:09:51.608Z,29.27
2019-05-05T02:10:54.929Z,32.15
2019-05-05T02:11:57.879Z,28.70
2019-05-05T02:13:00.779Z,29.50
2019-05-05T02:14:05.106Z,29.42
2019-05-05T02:15:08.602Z,30.55
2019-05-05T02:16:15.041Z,30.12
2019-05-05T02:17:17.998Z,28.52
2019-05-05T02:18:21.494Z,29.77
2019-05-05T02:19:25.225Z,31.05
2019-05-05T02:20:39.296Z,30.37
2019-05-05T02:21:45.247Z,28.57
2019-05-05T02:22:48.458Z,29.10
2019-05-05T02:23:51.394Z,29.02
2019-05-05T02:24:55.075Z,29.57
2019-05-05T02:25:58.381Z,28.98
2019-05-05T02:27:01.623Z,28.67
2019-05-05T02:28:05.467Z,28.92
2019-05-05T02:29:27.826Z,28.12
2019-05-05T02:30:38.324Z,28.12
2019-05-05T02:31:59.401Z,27.77
2019-05-05T02:33:06.759Z,27.00
2019-05-05T02:34:10.210Z,29.23
2019-05-05T02:35:16.284Z,28.27
2019-05-05T02:36:20.017Z,29.40
2019-05-05T02:37:25.599Z,27.00
2019-05-05T02:38:28.913Z,27.20
2019-05-05T02:39:34.225Z,26.93
2019-05-05T02:40:37.213Z,27.40
2019-05-05T02:41:41.689Z,27.30
2019-05-05T02:42:46.830Z,28.87
2019-05-05T02:43:50.215Z,25.65
2019-05-05T02:44:56.314Z,25.82
2019-05-05T02:46:35.769Z,29.42
2019-05-05T02:47:57.950Z,27.67
2019-05-05T02:49:05.330Z,26.85
2019-05-05T02:50:09.262Z,28.25
2019-05-05T02:51:15.178Z,34.63
2019-05-05T02:52:18.615Z,30.70
2019-05-05T02:53:24.738Z,29.92
2019-05-05T02:54:29.672Z,28.02
2019-05-05T02:55:34.785Z,29.48
2019-05-05T02:56:44.048Z,29.65
2019-05-05T02:57:47.474Z,29.82
2019-05-05T02:58:53.718Z,27.65
2019-05-05T03:00:02.007Z,28.25
2019-05-05T03:01:24.435Z,28.38
2019-05-05T03:02:31.019Z,27.93
2019-05-05T03:03:37.818Z,28.83
2019-05-05T03:04:44.239Z,29.05
2019-05-05T03:05:47.206Z,27.48
2019-05-05T03:06:54.231Z,28.80
2019-05-05T03:07:58.068Z,28.65
2019-05-05T03:09:04.335Z,27.42
2019-05-05T03:10:07.520Z,29.20
2019-05-05T03:11:14.470Z,29.50
2019-05-05T03:12:19.716Z,28.80
2019-05-05T03:13:24.321Z,28.62
2019-05-05T03:14:28.309Z,27.90
2019-05-05T03:16:14.478Z,28.05
2019-05-05T03:17:18.122Z,28.25
2019-05-05T03:18:24.508Z,28.20
2019-05-05T03:19:27.560Z,29.52
2019-05-05T03:20:30.840Z,28.42
2019-05-05T03:21:33.840Z,27.45
2019-05-05T03:22:36.839Z,28.67
2019-05-05T03:23:40.399Z,28.02
2019-05-05T03:24:44.958Z,28.83
2019-05-05T03:25:47.987Z,28.92
2019-05-05T03:26:53.730Z,29.67
2019-05-05T03:27:57.034Z,30.57
2019-05-05T03:29:00.746Z,29.80
2019-05-05T03:30:05.168Z,29.42
2019-05-05T03:31:08.739Z,29.30
2019-05-05T03:32:15.757Z,30.43
2019-05-05T03:33:17.082Z,29.50
2019-05-05T03:34:20.718Z,27.67
2019-05-05T03:35:24.233Z,27.65
2019-05-05T03:36:28.962Z,27.95
2019-05-05T03:37:34.248Z,27.20
2019-05-05T03:38:37.105Z,28.45
2019-05-05T03:39:44.467Z,27.37
2019-05-05T03:40:50.856Z,27.40
2019-05-05T03:42:20.629Z,25.52
2019-05-05T03:43:28.055Z,27.30
2019-05-05T03:44:35.683Z,26.95
2019-05-05T03:45:44.524Z,25.65
2019-05-05T03:46:47.865Z,26.15
2019-05-05T03:47:50.856Z,25.95
2019-05-05T03:48:54.230Z,26.93
2019-05-05T03:49:57.642Z,27.95
2019-05-05T03:51:00.676Z,26.55
2019-05-05T03:52:04.813Z,26.57
2019-05-05T03:53:07.993Z,27.05
2019-05-05T03:54:11.147Z,26.25
2019-05-05T03:55:14.150Z,28.42
2019-05-05T03:56:17.329Z,28.57
2019-05-05T03:57:21.071Z,27.45
2019-05-05T03:58:24.435Z,28.52
2019-05-05T03:59:27.643Z,29.12
2019-05-05T04:01:09.245Z,27.77
2019-05-05T04:02:47.100Z,26.05
2019-05-05T04:03:50.274Z,26.37
2019-05-05T04:04:54.992Z,27.37
2019-05-05T04:05:59.756Z,25.77
2019-05-05T04:07:04.702Z,27.35
2019-05-05T04:08:07.802Z,24.77
2019-05-05T04:09:10.756Z,26.82
2019-05-05T04:10:14.131Z,27.48
2019-05-05T04:11:17.774Z,26.90
2019-05-05T04:12:20.877Z,26.05
2019-05-05T04:13:24.266Z,26.30
2019-05-05T04:14:27.244Z,25.97
2019-05-05T04:15:33.717Z,26.77
2019-05-05T04:16:43.593Z,24.32
2019-05-05T04:18:07.731Z,26.02
2019-05-05T04:19:10.993Z,25.72
2019-05-05T04:20:53.426Z,24.27
2019-05-05T04:21:56.420Z,24.18
2019-05-05T04:22:59.369Z,24.37
2019-05-05T04:24:04.051Z,24.35
2019-05-05T04:25:07.826Z,26.12
2019-05-05T04:26:10.766Z,25.95
2019-05-05T04:27:14.649Z,25.12
2019-05-05T04:28:18.281Z,24.37
2019-05-05T04:29:21.574Z,24.35
2019-05-05T04:30:24.582Z,25.43
2019-05-05T04:31:27.537Z,25.95
2019-05-05T04:32:30.490Z,23.67
2019-05-05T04:33:34.218Z,26.42
2019-05-05T04:34:37.109Z,23.67
2019-05-05T04:35:40.017Z,23.55
2019-05-05T04:36:44.363Z,24.70
2019-05-05T04:37:47.822Z,24.02
2019-05-05T04:38:50.758Z,25.88
2019-05-05T04:39:53.886Z,22.73
2019-05-05T04:40:56.872Z,23.15
2019-05-05T04:42:00.193Z,22.55
2019-05-05T04:43:03.891Z,23.57
2019-05-05T04:44:06.971Z,25.88
2019-05-05T04:45:10.040Z,23.20
2019-05-05T04:46:14.066Z,21.85
2019-05-05T04:47:23.787Z,22.15
2019-05-05T04:48:34.557Z,24.35
2019-05-05T04:49:44.607Z,24.52
2019-05-05T04:50:54.380Z,24.02
2019-05-05T04:51:57.974Z,22.80
2019-05-05T04:53:01.798Z,23.52
2019-05-05T04:54:14.160Z,22.98
2019-05-05T04:55:18.110Z,22.55
2019-05-05T04:56:23.372Z,25.15
2019-05-05T04:57:25.998Z,22.73
2019-05-05T04:58:28.933Z,22.65
2019-05-05T04:59:35.348Z,22.48
2019-05-05T05:00:38.238Z,21.73
2019-05-05T05:01:41.161Z,21.70
2019-05-05T05:02:54.063Z,20.70
2019-05-05T05:04:25.890Z,20.50
2019-05-05T05:05:34.316Z,21.82
2019-05-05T05:06:40.940Z,21.77
2019-05-05T05:07:44.573Z,21.35
2019-05-05T05:08:47.589Z,24.07
2019-05-05T05:09:50.554Z,23.12
2019-05-05T05:10:54.267Z,23.12
2019-05-05T05:11:57.487Z,21.90
2019-05-05T05:13:00.858Z,21.87
2019-05-05T05:14:03.995Z,20.82
2019-05-05T05:15:06.978Z,21.17
2019-05-05T05:16:10.316Z,20.02
2019-05-05T05:17:19.780Z,19.52
2019-05-05T05:18:24.018Z,19.87
2019-05-05T05:19:27.656Z,19.73
2019-05-05T05:20:30.865Z,21.75
2019-05-05T05:21:34.409Z,21.05
2019-05-05T05:22:37.337Z,21.90
2019-05-05T05:23:40.281Z,21.02
2019-05-05T05:24:44.663Z,20.25
2019-05-05T05:25:48.205Z,20.60
2019-05-05T05:26:51.152Z,19.50
2019-05-05T05:27:54.129Z,20.48
2019-05-05T05:28:57.105Z,20.62
2019-05-05T05:30:00.385Z,19.37
2019-05-05T05:31:04.099Z,19.50
2019-05-05T05:32:07.968Z,18.73
2019-05-05T05:33:10.901Z,18.15
2019-05-05T05:34:14.964Z,19.15
2019-05-05T05:35:17.845Z,17.90
2019-05-05T05:36:20.831Z,18.98
2019-05-05T05:37:24.092Z,19.07
2019-05-05T05:38:27.781Z,19.60
2019-05-05T05:39:39.982Z,18.73
2019-05-05T05:40:56.285Z,19.67
2019-05-05T05:41:59.390Z,18.48
2019-05-05T05:43:04.684Z,16.30
2019-05-05T05:44:28.013Z,17.42
2019-05-05T05:45:40.597Z,17.07
2019-05-05T05:47:03.681Z,16.80
2019-05-05T05:48:26.518Z,15.28
2019-05-05T05:49:43.866Z,16.37
2019-05-05T05:50:51.017Z,16.52
2019-05-05T05:51:53.963Z,15.90
2019-05-05T05:52:56.879Z,15.53
2019-05-05T05:53:59.791Z,16.05
2019-05-05T05:55:04.072Z,17.20
2019-05-05T05:56:07.165Z,16.45
2019-05-05T05:57:10.090Z,16.82
2019-05-05T05:58:14.100Z,15.70
2019-05-05T05:59:17.161Z,16.97
2019-05-05T06:00:20.873Z,15.38
2019-05-05T06:01:24.013Z,15.23
2019-05-05T06:02:27.114Z,16.35
2019-05-05T06:03:33.889Z,15.58
2019-05-05T06:04:37.483Z,14.53
2019-05-05T06:05:40.492Z,14.65
2019-05-05T06:06:43.854Z,16.23
2019-05-05T06:07:46.921Z,13.58
2019-05-05T06:08:50.266Z,14.87
2019-05-05T06:09:54.150Z,14.50
2019-05-05T06:10:58.519Z,15.98
2019-05-05T06:12:03.437Z,14.93
2019-05-05T06:13:06.434Z,14.30
2019-05-05T06:14:09.384Z,14.93
2019-05-05T06:15:14.203Z,14.45
2019-05-05T06:16:17.161Z,14.45
2019-05-05T06:17:20.273Z,13.65
2019-05-05T06:18:24.371Z,14.30
2019-05-05T06:19:27.773Z,14.25
2019-05-05T06:20:30.735Z,13.30
2019-05-05T06:21:34.082Z,14.73
2019-05-05T06:22:37.239Z,14.07
2019-05-05T06:23:40.173Z,14.43
2019-05-05T06:24:43.924Z,14.35
2019-05-05T06:25:47.553Z,14.00
2019-05-05T06:26:50.494Z,13.10
2019-05-05T06:27:54.033Z,14.95
2019-05-05T06:28:57.093Z,14.28
2019-05-05T06:30:00.228Z,13.70
2019-05-05T06:31:04.870Z,12.55
2019-05-05T06:32:07.947Z,13.85
2019-05-05T06:33:10.917Z,13.95
2019-05-05T06:34:14.224Z,13.28
2019-05-05T06:35:20.232Z,14.25
2019-05-05T06:36:23.513Z,12.65
2019-05-05T06:37:26.477Z,13.93
2019-05-05T06:38:29.643Z,13.18
2019-05-05T06:39:33.452Z,14.83
2019-05-05T06:41:04.905Z,11.83
2019-05-05T06:42:20.147Z,13.75
2019-05-05T06:43:54.208Z,13.75
2019-05-05T06:45:01.210Z,13.18
2019-05-05T06:46:05.061Z,12.98
2019-05-05T06:47:13.870Z,13.00
2019-05-05T06:48:17.098Z,13.68
2019-05-05T06:49:19.997Z,12.88
2019-05-05T06:50:24.278Z,12.45
2019-05-05T06:51:27.654Z,12.53
2019-05-05T06:52:41.962Z,12.78
2019-05-05T06:53:35.940Z,11.93
2019-05-05T06:54:38.835Z,12.18
2019-05-05T06:55:41.785Z,11.63
2019-05-05T06:56:45.004Z,11.33
2019-05-05T06:57:47.979Z,11.57
2019-05-05T06:58:50.909Z,12.73
2019-05-05T06:59:54.379Z,12.70
2019-05-05T07:01:00.700Z,12.13
2019-05-05T07:02:04.386Z,12.23
2019-05-05T07:03:07.958Z,10.32
2019-05-05T07:04:10.825Z,11.93
2019-05-05T07:05:14.393Z,12.50
2019-05-05T07:06:17.351Z,11.90
2019-05-05T07:07:20.289Z,12.65
2019-05-05T07:08:24.356Z,12.28
2019-05-05T07:09:27.660Z,12.40
2019-05-05T07:10:30.561Z,12.30
2019-05-05T07:11:34.693Z,13.40
2019-05-05T07:12:37.610Z,12.88
2019-05-05T07:13:40.951Z,11.15
2019-05-05T07:14:44.572Z,11.78
2019-05-05T07:15:48.070Z,12.45
2019-05-05T07:16:51.031Z,11.73
2019-05-05T07:17:54.157Z,11.93
2019-05-05T07:18:57.189Z,12.60
2019-05-05T07:20:01.129Z,11.08
2019-05-05T07:21:04.046Z,11.80
2019-05-05T07:22:07.191Z,13.43
2019-05-05T07:49:29.710Z,11.12
2019-05-05T07:50:35.694Z,11.10
2019-05-05T07:51:37.557Z,12.25
2019-05-05T07:52:40.653Z,10.82
2019-05-05T07:53:44.387Z,10.72
2019-05-05T07:54:47.462Z,11.63
2019-05-05T07:55:50.416Z,10.85
2019-05-05T07:56:53.961Z,11.18
2019-05-05T07:57:57.296Z,11.60
2019-05-05T07:59:00.253Z,11.83
2019-05-05T08:00:05.420Z,11.10
2019-05-05T08:01:08.511Z,11.30
2019-05-05T08:02:11.700Z,9.70
2019-05-05T08:03:14.710Z,10.80
2019-05-05T08:04:17.611Z,10.20
2019-05-05T08:05:20.563Z,9.75
2019-05-05T08:06:24.192Z,10.60
2019-05-05T08:07:27.473Z,10.30
2019-05-05T08:08:30.400Z,11.85
2019-05-05T08:09:33.842Z,12.15
2019-05-05T08:10:38.897Z,12.70
2019-05-05T08:11:43.637Z,10.68
2019-05-05T08:12:46.609Z,10.82
2019-05-05T08:13:49.541Z,11.15
2019-05-05T08:14:53.756Z,9.73
2019-05-05T08:16:00.122Z,11.70
2019-05-05T08:17:34.719Z,9.85
2019-05-05T08:18:56.576Z,10.25
2019-05-05T08:20:07.550Z,10.50
2019-05-05T08:21:10.592Z,10.43
2019-05-05T08:22:14.133Z,14.50
2019-05-05T08:23:32.756Z,11.97
2019-05-05T08:25:04.063Z,10.88
2019-05-05T08:26:13.726Z,11.15
2019-05-05T08:27:25.600Z,10.05
2019-05-05T08:28:36.959Z,12.18
2019-05-05T08:29:46.153Z,8.88
2019-05-05T08:30:59.412Z,9.30
2019-05-05T08:32:28.500Z,9.58
2019-05-05T08:33:33.464Z,10.20
2019-05-05T08:34:36.375Z,10.88
2019-05-05T08:35:39.438Z,10.28
2019-05-05T08:36:44.493Z,10.38
2019-05-05T08:37:47.452Z,10.48
2019-05-05T08:38:50.373Z,9.65
2019-05-05T08:39:54.098Z,9.90
2019-05-05T08:40:57.489Z,10.43
2019-05-05T08:42:00.774Z,10.50
2019-05-05T08:43:04.606Z,9.10
2019-05-05T08:44:07.653Z,9.85
2019-05-05T08:45:13.681Z,10.78
2019-05-05T08:46:16.804Z,11.90
2019-05-05T08:47:19.754Z,9.78
2019-05-05T08:48:24.601Z,10.85
2019-05-05T08:49:27.741Z,9.85
2019-05-05T08:50:31.645Z,8.95
2019-05-05T08:51:34.509Z,10.78
2019-05-05T08:52:37.465Z,9.35
2019-05-05T08:53:44.868Z,9.13
2019-05-05T08:54:47.137Z,8.15
2019-05-05T08:55:50.155Z,7.08
2019-05-05T08:56:54.963Z,8.15
2019-05-05T08:57:58.489Z,7.08
2019-05-05T08:59:03.539Z,7.58
2019-05-05T09:00:07.739Z,7.05
2019-05-05T09:01:10.666Z,6.75
2019-05-05T09:02:15.096Z,7.72
2019-05-05T09:03:18.278Z,6.10
2019-05-05T09:04:21.370Z,8.78
2019-05-05T09:05:24.299Z,6.40
2019-05-05T09:06:27.283Z,6.15
2019-05-05T09:07:30.929Z,6.08
2019-05-05T09:08:34.696Z,5.00
2019-05-05T09:09:37.785Z,5.95
2019-05-05T09:10:41.133Z,5.80
2019-05-05T09:11:45.010Z,9.43
2019-05-05T09:12:48.218Z,5.17
2019-05-05T09:13:51.161Z,5.75
2019-05-05T09:14:54.123Z,5.20
2019-05-05T09:15:57.446Z,4.50
2019-05-05T09:17:00.417Z,5.12
2019-05-05T09:18:05.008Z,5.83
2019-05-05T09:19:11.877Z,5.60
2019-05-05T09:20:15.550Z,5.37
2019-05-05T09:21:18.516Z,4.87
2019-05-05T09:22:21.560Z,5.40
2019-05-05T09:23:24.563Z,5.17
2019-05-05T09:24:50.409Z,5.67
2019-05-05T09:26:13.845Z,5.58
2019-05-05T09:27:24.837Z,4.47
2019-05-05T09:28:37.138Z,4.22
2019-05-05T09:29:43.949Z,6.15
2019-05-05T09:30:48.460Z,3.77
2019-05-05T09:31:54.327Z,3.62
2019-05-05T09:32:57.234Z,3.30
2019-05-05T09:34:00.198Z,4.22
2019-05-05T09:35:04.776Z,3.90
2019-05-05T09:36:07.859Z,3.65
2019-05-05T09:37:10.801Z,5.05
2019-05-05T09:38:14.727Z,5.25
2019-05-05T09:39:17.750Z,3.80
2019-05-05T09:40:33.479Z,4.70
2019-05-05T09:41:36.679Z,3.90
2019-05-05T09:42:39.626Z,3.60
2019-05-05T09:43:44.570Z,4.03
2019-05-05T09:44:47.301Z,4.60
2019-05-05T09:45:50.236Z,5.03
2019-05-05T09:46:53.818Z,7.70
2019-05-05T09:47:57.209Z,4.30
2019-05-05T09:49:00.232Z,4.22
2019-05-05T09:50:03.966Z,3.98
2019-05-05T09:51:08.455Z,17.23
2019-05-05T09:52:13.435Z,4.87
2019-05-05T09:53:16.424Z,4.60
2019-05-05T09:54:19.391Z,5.47
2019-05-05T09:55:24.093Z,5.92
2019-05-05T09:56:27.069Z,6.20
2019-05-05T09:57:30.014Z,7.60
2019-05-05T09:58:34.741Z,5.78
2019-05-05T09:59:40.202Z,5.65
2019-05-05T10:00:44.612Z,4.70
2019-05-05T10:01:47.550Z,4.80
2019-05-05T10:02:50.531Z,5.60
2019-05-05T10:03:57.366Z,5.85
2019-05-05T10:05:00.270Z,5.22
2019-05-05T10:06:05.014Z,5.85
2019-05-05T10:07:07.921Z,4.78
2019-05-05T10:08:10.841Z,5.47
2019-05-05T10:09:13.931Z,5.83
2019-05-05T10:10:20.639Z,5.35
2019-05-05T10:11:23.895Z,7.28
2019-05-05T10:12:26.872Z,9.23
2019-05-05T10:13:29.774Z,6.30
2019-05-05T10:14:34.181Z,6.55
2019-05-05T10:15:37.175Z,8.08
2019-05-05T10:16:40.105Z,9.75
2019-05-05T10:17:43.463Z,7.47
2019-05-05T10:18:46.406Z,6.97
2019-05-05T10:19:49.397Z,6.80
2019-05-05T10:20:54.063Z,5.83
2019-05-05T10:21:58.260Z,7.55
2019-05-05T10:23:01.956Z,5.80
2019-05-05T10:24:27.738Z,5.87
2019-05-05T10:25:53.815Z,8.85
2019-05-05T10:26:58.576Z,6.20
2019-05-05T10:28:01.493Z,7.90
2019-05-05T10:29:04.452Z,7.95
2019-05-05T10:30:10.557Z,8.60
2019-05-05T10:31:13.821Z,7.00
2019-05-05T10:32:18.033Z,6.45
2019-05-05T10:33:21.049Z,6.70
2019-05-05T10:34:24.270Z,8.25
2019-05-05T10:35:30.121Z,7.50
2019-05-05T10:36:38.649Z,16.32
2019-05-05T10:37:43.709Z,9.60
2019-05-05T10:38:50.507Z,7.45
2019-05-05T10:39:54.373Z,10.35
2019-05-05T10:40:57.339Z,9.13
2019-05-05T10:42:00.245Z,9.13
2019-05-05T10:43:04.394Z,9.00
2019-05-05T10:44:07.814Z,8.83
2019-05-05T10:45:10.893Z,6.62
2019-05-05T10:46:14.341Z,6.33
2019-05-05T10:47:18.401Z,6.65
2019-05-05T10:48:23.471Z,6.62
2019-05-05T10:49:26.209Z,5.78
2019-05-05T10:50:29.151Z,6.62
2019-05-05T10:51:34.125Z,6.58
2019-05-05T10:52:36.912Z,8.33
2019-05-05T10:53:39.821Z,8.43
2019-05-05T10:54:44.931Z,8.03
2019-05-05T10:55:47.601Z,6.17
2019-05-05T10:56:50.652Z,5.97
2019-05-05T10:57:54.393Z,8.03
2019-05-05T10:58:57.393Z,7.65
2019-05-05T11:00:11.700Z,10.90
2019-05-05T11:01:05.202Z,8.25
2019-05-05T11:02:08.461Z,8.00
2019-05-05T11:03:11.731Z,10.75
2019-05-05T11:04:15.113Z,7.95
2019-05-05T11:05:18.210Z,11.00
2019-05-05T11:06:21.133Z,7.85
2019-05-05T11:07:24.168Z,14.10
2019-05-05T11:08:30.513Z,7.95
2019-05-05T11:09:33.721Z,7.47
2019-05-05T11:10:36.958Z,6.03
2019-05-05T11:11:39.870Z,8.75
2019-05-05T11:12:44.380Z,7.08
2019-05-05T11:13:47.423Z,6.72
2019-05-05T11:14:50.360Z,7.87
2019-05-05T11:15:54.683Z,7.17
2019-05-05T11:16:57.747Z,6.17
2019-05-05T11:18:01.125Z,10.95
2019-05-05T11:19:04.395Z,6.10
2019-05-05T11:20:07.649Z,5.55
2019-05-05T11:21:10.585Z,6.28
2019-05-05T11:22:14.710Z,6.30
2019-05-05T11:23:17.996Z,7.80
2019-05-05T11:24:20.999Z,6.45
2019-05-05T11:25:24.306Z,8.03
2019-05-05T11:26:29.217Z,6.53
2019-05-05T11:27:34.105Z,6.30
2019-05-05T11:28:36.934Z,5.87
2019-05-05T11:29:59.317Z,5.97
2019-05-05T11:31:04.236Z,7.85
2019-05-05T11:32:15.291Z,7.75
2019-05-05T11:33:40.329Z,6.33
2019-05-05T11:34:44.242Z,5.78
2019-05-05T11:35:53.945Z,6.05
2019-05-05T11:37:08.032Z,6.03
2019-05-05T11:38:11.082Z,6.58
2019-05-05T11:39:14.828Z,6.22
2019-05-05T11:40:30.819Z,5.70
2019-05-05T11:41:33.735Z,6.92
2019-05-05T11:42:39.325Z,6.85
2019-05-05T11:43:42.582Z,6.42
2019-05-05T11:44:47.412Z,7.70
2019-05-05T11:45:50.232Z,5.75
2019-05-05T11:46:54.704Z,6.58
2019-05-05T11:47:57.737Z,6.58
2019-05-05T11:49:00.730Z,6.33
2019-05-05T11:50:04.442Z,5.80
2019-05-05T11:51:07.376Z,7.58
2019-05-05T11:52:10.306Z,6.67
2019-05-05T11:53:14.572Z,6.30
2019-05-05T11:54:17.829Z,5.87
2019-05-05T11:55:20.748Z,8.90
2019-05-05T11:56:23.848Z,8.00
2019-05-05T11:57:27.140Z,7.58
2019-05-05T11:58:34.067Z,7.08
2019-05-05T11:59:37.177Z,7.53
2019-05-05T12:00:40.149Z,6.30
2019-05-05T12:01:44.061Z,6.47
2019-05-05T12:02:47.595Z,5.95
2019-05-05T12:03:50.542Z,6.42
2019-05-05T12:04:54.137Z,6.45
2019-05-05T12:05:57.105Z,7.12
2019-05-05T12:07:00.196Z,6.40
2019-05-05T12:08:03.912Z,6.97
2019-05-05T12:09:13.993Z,6.15
2019-05-05T12:10:39.681Z,7.85
2019-05-05T12:11:43.836Z,6.58
2019-05-05T12:12:46.824Z,7.47
2019-05-05T12:13:49.741Z,7.72
2019-05-05T12:14:53.995Z,5.55
2019-05-05T12:15:59.885Z,8.00
2019-05-05T12:17:05.547Z,7.15
2019-05-05T12:18:11.313Z,7.60
2019-05-05T12:19:14.267Z,6.15
2019-05-05T12:20:21.710Z,7.17
2019-05-05T12:21:27.575Z,7.22
2019-05-05T12:22:34.056Z,7.05
2019-05-05T12:23:37.560Z,7.42
2019-05-05T12:24:44.302Z,8.63
2019-05-05T12:25:57.367Z,7.03
2019-05-05T12:27:18.240Z,7.95
2019-05-05T12:28:31.457Z,8.33
2019-05-05T12:29:38.369Z,8.53
2019-05-05T12:30:41.264Z,7.30
2019-05-05T12:31:46.169Z,7.20
2019-05-05T12:32:50.734Z,6.80
2019-05-05T12:33:54.763Z,8.43
2019-05-05T12:34:57.841Z,6.60
2019-05-05T12:36:00.766Z,5.30
2019-05-05T12:37:05.329Z,9.10
2019-05-05T12:38:08.353Z,7.05
2019-05-05T12:39:14.191Z,7.28
2019-05-05T12:40:17.333Z,6.58
2019-05-05T12:41:21.022Z,7.03
2019-05-05T12:42:24.429Z,6.65
2019-05-05T12:43:27.379Z,7.80
2019-05-05T12:44:36.204Z,7.67
2019-05-05T12:45:41.308Z,7.62
2019-05-05T12:46:54.789Z,6.97
2019-05-05T12:48:21.015Z,7.05
2019-05-05T12:49:25.375Z,7.10
2019-05-05T12:50:28.505Z,7.33
2019-05-05T12:51:31.460Z,7.53
2019-05-05T12:52:34.481Z,7.40
2019-05-05T12:53:37.561Z,7.87
2019-05-05T12:54:41.277Z,7.42
2019-05-05T12:55:44.611Z,9.93
2019-05-05T12:56:48.670Z,7.80
2019-05-05T12:57:51.747Z,9.75
2019-05-05T12:58:54.716Z,8.70
2019-05-05T12:59:57.673Z,8.38
2019-05-05T13:01:07.542Z,8.48
2019-05-05T13:02:10.444Z,9.23
2019-05-05T13:03:13.575Z,8.88
2019-05-05T13:04:16.538Z,10.48
2019-05-05T13:05:19.593Z,8.70
2019-05-05T13:06:23.969Z,9.00
2019-05-05T13:07:27.267Z,9.03
2019-05-05T13:08:30.160Z,8.05
2019-05-05T13:09:33.543Z,7.90
2019-05-05T13:10:36.690Z,8.28
2019-05-05T13:11:39.616Z,7.87
2019-05-05T13:12:43.694Z,9.05
2019-05-05T13:13:46.646Z,10.23
2019-05-05T13:14:49.601Z,9.43
2019-05-05T13:15:53.638Z,7.78
2019-05-05T13:16:56.649Z,8.88
2019-05-05T13:17:59.717Z,7.83
2019-05-05T13:19:06.219Z,9.30
2019-05-05T13:20:24.653Z,7.45
2019-05-05T13:21:56.605Z,7.50
2019-05-05T13:23:23.473Z,8.60
2019-05-05T13:24:36.161Z,8.23
2019-05-05T13:26:05.229Z,8.15
2019-05-05T13:27:19.212Z,8.00
2019-05-05T13:28:16.883Z,8.15
2019-05-05T13:29:21.031Z,6.47
2019-05-05T13:30:23.991Z,5.83
2019-05-05T13:31:26.963Z,5.58
2019-05-05T13:32:30.613Z,6.00
2019-05-05T13:33:37.232Z,6.60
2019-05-05T13:34:39.500Z,6.53
2019-05-05T13:35:42.425Z,9.05
2019-05-05T13:36:45.626Z,5.97
2019-05-05T13:37:48.628Z,6.37
2019-05-05T13:38:52.107Z,6.10
2019-05-05T13:39:56.303Z,7.03
2019-05-05T13:40:59.842Z,7.78
2019-05-05T13:42:04.585Z,6.20
2019-05-05T13:43:07.522Z,8.08
2019-05-05T13:44:18.360Z,7.85
2019-05-05T13:45:40.380Z,6.85
2019-05-05T13:46:44.290Z,8.45
2019-05-05T13:47:47.277Z,7.72
2019-05-05T13:48:50.264Z,7.42
2019-05-05T13:49:57.052Z,8.93
2019-05-05T13:51:04.143Z,7.10
2019-05-05T13:52:07.885Z,7.45
2019-05-05T13:53:10.801Z,8.23
2019-05-05T13:54:13.951Z,7.30
2019-05-05T13:55:17.116Z,7.10
2019-05-05T13:56:20.103Z,8.20
2019-05-05T13:57:24.589Z,7.12
2019-05-05T13:58:28.019Z,6.72
2019-05-05T13:59:31.313Z,7.33
2019-05-05T14:00:34.237Z,7.58
2019-05-05T14:01:37.398Z,6.45
2019-05-05T14:02:40.643Z,5.90
2019-05-05T14:03:44.698Z,6.22
2019-05-05T14:04:47.769Z,6.87
2019-05-05T14:05:50.878Z,6.30
2019-05-05T14:06:54.385Z,6.33
2019-05-05T14:07:57.773Z,6.03
2019-05-05T14:09:00.706Z,5.50
2019-05-05T14:10:04.949Z,5.58
2019-05-05T14:11:08.638Z,4.92
2019-05-05T14:12:12.214Z,5.60
2019-05-05T14:13:17.121Z,5.75
2019-05-05T14:14:20.049Z,4.85
2019-05-05T14:15:23.457Z,5.50
2019-05-05T14:16:26.650Z,5.12
2019-05-05T14:17:29.641Z,5.55
2019-05-05T14:18:33.254Z,10.90
2019-05-05T14:19:44.447Z,5.85
2019-05-05T14:20:48.429Z,6.45
2019-05-05T14:21:53.686Z,4.60
2019-05-05T14:22:56.305Z,4.67
2019-05-05T14:24:15.929Z,4.80
2019-05-05T14:25:24.237Z,4.75
2019-05-05T14:26:28.347Z,4.60
2019-05-05T14:27:32.008Z,4.42
2019-05-05T14:28:34.989Z,4.85
2019-05-05T14:29:55.479Z,4.85
2019-05-05T14:31:09.404Z,5.47
2019-05-05T14:32:13.945Z,5.42
2019-05-05T14:33:19.670Z,4.20
2019-05-05T14:34:27.926Z,4.95
2019-05-05T14:35:48.559Z,4.28
2019-05-05T14:37:11.204Z,3.50
2019-05-05T14:38:20.063Z,4.65
2019-05-05T14:39:23.945Z,4.62
2019-05-05T14:40:27.294Z,4.65
2019-05-05T14:41:30.228Z,3.87
2019-05-05T14:42:34.160Z,4.70
2019-05-05T14:43:37.468Z,4.42
2019-05-05T14:44:40.497Z,3.92
2019-05-05T14:45:44.473Z,3.85